sensor_id;sensor_type;location;lat;lon;timestamp;pressure;altitude;pressure_sealevel;temperature;humidity
24666;BME280;29726;53.532;-1.478;2023-05-12T00:01:04;101199.84;;;18.62;100.00
24666;BME280;29726;53.532;-1.478;2023-05-12T00:03:49;101202.19;;;18.63;100.00
24666;BME280;29726;53.532;-1.478;2023-05-12T00:06:36;101217.88;;;18.64;100.00
24666;BME280;29726;53.532;-1.478;2023-05-12T00:09:19;101216.28;;;18.58;100.00
24666;BME280;29726;53.532;-1.478;2023-05-12T00:12:04;101224.56;;;18.61;100.00
24666;BME280;29726;53.532;-1.478;2023-05-12T00:14:48;101213.94;;;18.51;100.00
24666;BME280;29726;53.532;-1.478;2023-05-12T00:17:32;101224.03;;;18.57;100.00
24666;BME280;29726;53.532;-1.478;2023-05-12T00:20:16;101195.59;;;18.36;100.00
24666;BME280;29726;53.532;-1.478;2023-05-12T00:23:00;101220.38;;;18.51;100.00
24666;BME280;29726;53.532;-1.478;2023-05-12T00:25:44;101226.03;;;18.51;100.00
24666;BME280;29726;53.532;-1.478;2023-05-12T00:28:28;101212.84;;;18.43;100.00
24666;BME280;29726;53.532;-1.478;2023-05-12T00:31:12;101220.34;;;18.46;100.00
24666;BME280;29726;53.532;-1.478;2023-05-12T00:33:56;101223.19;;;18.46;100.00
24666;BME280;29726;53.532;-1.478;2023-05-12T00:36:39;101222.63;;;18.42;100.00
24666;BME280;29726;53.532;-1.478;2023-05-12T00:39:23;101225.69;;;18.39;100.00
24666;BME280;29726;53.532;-1.478;2023-05-12T00:42:07;101213.31;;;18.36;100.00
24666;BME280;29726;53.532;-1.478;2023-05-12T00:44:52;101233.66;;;18.40;100.00
24666;BME280;29726;53.532;-1.478;2023-05-12T00:47:36;101218.66;;;18.29;100.00
24666;BME280;29726;53.532;-1.478;2023-05-12T00:50:20;101238.78;;;18.36;100.00
24666;BME280;29726;53.532;-1.478;2023-05-12T00:53:05;101207.50;;;18.14;100.00
24666;BME280;29726;53.532;-1.478;2023-05-12T00:55:49;101247.00;;;18.34;100.00
24666;BME280;29726;53.532;-1.478;2023-05-12T00:58:33;101238.97;;;18.27;100.00
24666;BME280;29726;53.532;-1.478;2023-05-12T01:01:17;101244.63;;;18.27;100.00
24666;BME280;29726;53.532;-1.478;2023-05-12T01:04:01;101262.13;;;18.31;100.00
24666;BME280;29726;53.532;-1.478;2023-05-12T01:06:57;101257.50;;;18.28;100.00
24666;BME280;29726;53.532;-1.478;2023-05-12T01:09:42;101255.84;;;18.22;100.00
24666;BME280;29726;53.532;-1.478;2023-05-12T01:12:27;101262.56;;;18.24;100.00
24666;BME280;29726;53.532;-1.478;2023-05-12T01:15:11;101262.28;;;18.22;100.00
24666;BME280;29726;53.532;-1.478;2023-05-12T01:17:58;101261.03;;;18.23;100.00
24666;BME280;29726;53.532;-1.478;2023-05-12T01:20:46;101254.78;;;18.14;100.00
24666;BME280;29726;53.532;-1.478;2023-05-12T01:23:36;101226.09;;;17.95;100.00
24666;BME280;29726;53.532;-1.478;2023-05-12T01:26:20;101264.06;;;18.20;100.00
24666;BME280;29726;53.532;-1.478;2023-05-12T01:29:05;101275.59;;;18.16;100.00
24666;BME280;29726;53.532;-1.478;2023-05-12T01:31:50;101284.06;;;18.16;100.00
24666;BME280;29726;53.532;-1.478;2023-05-12T01:34:34;101273.22;;;18.09;100.00
24666;BME280;29726;53.532;-1.478;2023-05-12T01:37:18;101280.44;;;18.10;100.00
24666;BME280;29726;53.532;-1.478;2023-05-12T01:40:03;101290.94;;;18.10;100.00
24666;BME280;29726;53.532;-1.478;2023-05-12T01:42:48;101286.28;;;18.07;100.00
24666;BME280;29726;53.532;-1.478;2023-05-12T01:45:32;101293.50;;;18.08;100.00
24666;BME280;29726;53.532;-1.478;2023-05-12T01:48:16;101256.81;;;17.82;100.00
24666;BME280;29726;53.532;-1.478;2023-05-12T01:51:00;101288.31;;;18.01;100.00
24666;BME280;29726;53.532;-1.478;2023-05-12T01:53:44;101296.03;;;18.00;100.00
24666;BME280;29726;53.532;-1.478;2023-05-12T01:56:28;101282.31;;;17.93;100.00
24666;BME280;29726;53.532;-1.478;2023-05-12T01:59:12;101288.47;;;17.92;100.00
24666;BME280;29726;53.532;-1.478;2023-05-12T02:01:56;101294.63;;;17.90;100.00
24666;BME280;29726;53.532;-1.478;2023-05-12T02:04:40;101277.50;;;17.74;100.00
24666;BME280;29726;53.532;-1.478;2023-05-12T02:07:24;101309.03;;;17.92;100.00
24666;BME280;29726;53.532;-1.478;2023-05-12T02:10:08;101312.38;;;17.91;100.00
24666;BME280;29726;53.532;-1.478;2023-05-12T02:12:53;101312.84;;;17.89;100.00
24666;BME280;29726;53.532;-1.478;2023-05-12T02:15:36;101315.88;;;17.86;100.00
24666;BME280;29726;53.532;-1.478;2023-05-12T02:18:20;101303.22;;;17.76;100.00
24666;BME280;29726;53.532;-1.478;2023-05-12T02:21:05;101334.41;;;17.87;100.00
24666;BME280;29726;53.532;-1.478;2023-05-12T02:23:49;101333.06;;;17.82;100.00
24666;BME280;29726;53.532;-1.478;2023-05-12T02:26:33;101327.16;;;17.80;100.00
24666;BME280;29726;53.532;-1.478;2023-05-12T02:29:16;101333.28;;;17.79;100.00
24666;BME280;29726;53.532;-1.478;2023-05-12T02:32:01;101325.03;;;17.75;100.00
24666;BME280;29726;53.532;-1.478;2023-05-12T02:34:45;101323.47;;;17.74;100.00
24666;BME280;29726;53.532;-1.478;2023-05-12T02:37:30;101327.88;;;17.75;100.00
24666;BME280;29726;53.532;-1.478;2023-05-12T02:40:14;101337.59;;;17.74;100.00
24666;BME280;29726;53.532;-1.478;2023-05-12T02:42:58;101329.28;;;17.65;100.00
24666;BME280;29726;53.532;-1.478;2023-05-12T02:45:42;101337.03;;;17.70;100.00
24666;BME280;29726;53.532;-1.478;2023-05-12T02:48:26;101337.03;;;17.70;100.00
24666;BME280;29726;53.532;-1.478;2023-05-12T02:51:10;101336.47;;;17.66;100.00
24666;BME280;29726;53.532;-1.478;2023-05-12T02:53:55;101336.47;;;17.66;100.00
24666;BME280;29726;53.532;-1.478;2023-05-12T02:56:39;101337.47;;;17.63;100.00
24666;BME280;29726;53.532;-1.478;2023-05-12T02:59:23;101329.47;;;17.62;100.00
24666;BME280;29726;53.532;-1.478;2023-05-12T03:02:06;101339.22;;;17.61;100.00
24666;BME280;29726;53.532;-1.478;2023-05-12T03:04:51;101343.31;;;17.60;100.00
24666;BME280;29726;53.532;-1.478;2023-05-12T03:07:34;101334.09;;;17.59;100.00
24666;BME280;29726;53.532;-1.478;2023-05-12T03:10:18;101317.78;;;17.49;100.00
24666;BME280;29726;53.532;-1.478;2023-05-12T03:13:02;101337.34;;;17.52;100.00
24666;BME280;29726;53.532;-1.478;2023-05-12T03:15:46;101329.09;;;17.49;100.00
24666;BME280;29726;53.532;-1.478;2023-05-12T03:18:30;101336.38;;;17.55;100.00
24666;BME280;29726;53.532;-1.478;2023-05-12T03:21:14;101327.75;;;17.44;100.00
24666;BME280;29726;53.532;-1.478;2023-05-12T03:23:58;101332.69;;;17.49;100.00
24666;BME280;29726;53.532;-1.478;2023-05-12T03:26:42;101334.66;;;17.43;100.00
24666;BME280;29726;53.532;-1.478;2023-05-12T03:29:26;101327.97;;;17.41;100.00
24666;BME280;29726;53.532;-1.478;2023-05-12T03:32:10;101345.75;;;17.47;100.00
24666;BME280;29726;53.532;-1.478;2023-05-12T03:34:54;101331.00;;;17.37;100.00
24666;BME280;29726;53.532;-1.478;2023-05-12T03:37:38;101338.00;;;17.42;100.00
24666;BME280;29726;53.532;-1.478;2023-05-12T03:40:22;101327.91;;;17.35;100.00
24666;BME280;29726;53.532;-1.478;2023-05-12T03:43:06;101346.94;;;17.40;100.00
24666;BME280;29726;53.532;-1.478;2023-05-12T03:45:50;101349.78;;;17.40;100.00
24666;BME280;29726;53.532;-1.478;2023-05-12T03:48:34;101317.63;;;17.18;100.00
24666;BME280;29726;53.532;-1.478;2023-05-12T03:51:18;101346.56;;;17.33;100.00
24666;BME280;29726;53.532;-1.478;2023-05-12T03:54:03;101307.03;;;17.13;100.00
24666;BME280;29726;53.532;-1.478;2023-05-12T03:56:47;101344.56;;;17.33;100.00
24666;BME280;29726;53.532;-1.478;2023-05-12T03:59:32;101360.50;;;17.36;100.00
24666;BME280;29726;53.532;-1.478;2023-05-12T04:02:16;101340.28;;;17.23;100.00
24666;BME280;29726;53.532;-1.478;2023-05-12T04:05:00;101355.53;;;17.31;100.00
24666;BME280;29726;53.532;-1.478;2023-05-12T04:07:44;101344.38;;;17.22;100.00
24666;BME280;29726;53.532;-1.478;2023-05-12T04:10:28;101362.94;;;17.29;100.00
24666;BME280;29726;53.532;-1.478;2023-05-12T04:13:12;101363.72;;;17.29;100.00
24666;BME280;29726;53.532;-1.478;2023-05-12T04:15:57;101363.72;;;17.29;100.00
24666;BME280;29726;53.532;-1.478;2023-05-12T04:18:42;101361.84;;;17.26;100.00
24666;BME280;29726;53.532;-1.478;2023-05-12T04:21:26;101353.53;;;17.17;100.00
24666;BME280;29726;53.532;-1.478;2023-05-12T04:24:10;101365.09;;;17.19;100.00
24666;BME280;29726;53.532;-1.478;2023-05-12T04:26:54;101363.28;;;17.16;100.00
24666;BME280;29726;53.532;-1.478;2023-05-12T04:29:40;101362.00;;;17.17;100.00
24666;BME280;29726;53.532;-1.478;2023-05-12T04:32:24;101371.81;;;17.22;100.00
24666;BME280;29726;53.532;-1.478;2023-05-12T04:35:08;101355.28;;;17.15;100.00
24666;BME280;29726;53.532;-1.478;2023-05-12T04:37:52;101358.81;;;17.10;100.00
24666;BME280;29726;53.532;-1.478;2023-05-12T04:40:36;101370.00;;;17.19;100.00
24666;BME280;29726;53.532;-1.478;2023-05-12T04:43:20;101379.72;;;17.18;100.00
24666;BME280;29726;53.532;-1.478;2023-05-12T04:46:04;101374.00;;;17.12;100.00
24666;BME280;29726;53.532;-1.478;2023-05-12T04:48:48;101386.59;;;17.17;100.00
24666;BME280;29726;53.532;-1.478;2023-05-12T04:51:32;101396.28;;;17.10;100.00
24666;BME280;29726;53.532;-1.478;2023-05-12T04:54:16;101396.56;;;17.12;100.00
24666;BME280;29726;53.532;-1.478;2023-05-12T04:57:00;101397.03;;;17.11;100.00
24666;BME280;29726;53.532;-1.478;2023-05-12T04:59:44;101403.97;;;17.10;100.00
24666;BME280;29726;53.532;-1.478;2023-05-12T05:02:28;101393.84;;;17.03;100.00
24666;BME280;29726;53.532;-1.478;2023-05-12T05:05:12;101407.47;;;17.05;100.00
24666;BME280;29726;53.532;-1.478;2023-05-12T05:07:56;101369.47;;;16.86;100.00
24666;BME280;29726;53.532;-1.478;2023-05-12T05:10:40;101410.09;;;17.08;100.00
24666;BME280;29726;53.532;-1.478;2023-05-12T05:13:24;101411.56;;;17.04;100.00
24666;BME280;29726;53.532;-1.478;2023-05-12T05:16:08;101417.22;;;17.04;100.00
24666;BME280;29726;53.532;-1.478;2023-05-12T05:18:52;101386.63;;;16.82;100.00
24666;BME280;29726;53.532;-1.478;2023-05-12T05:21:36;101433.34;;;17.03;100.00
24666;BME280;29726;53.532;-1.478;2023-05-12T05:24:20;101404.03;;;16.81;100.00
24666;BME280;29726;53.532;-1.478;2023-05-12T05:27:04;101440.25;;;17.02;100.00
24666;BME280;29726;53.532;-1.478;2023-05-12T05:29:48;101446.19;;;17.04;100.00
24666;BME280;29726;53.532;-1.478;2023-05-12T05:32:34;101441.75;;;16.98;100.00
24666;BME280;29726;53.532;-1.478;2023-05-12T05:35:19;101461.28;;;17.01;100.00
24666;BME280;29726;53.532;-1.478;2023-05-12T05:38:03;101454.78;;;16.95;100.00
24666;BME280;29726;53.532;-1.478;2023-05-12T05:40:47;101451.47;;;16.97;100.00
24666;BME280;29726;53.532;-1.478;2023-05-12T05:43:31;101470.53;;;17.02;100.00
24666;BME280;29726;53.532;-1.478;2023-05-12T05:46:15;101467.91;;;16.98;100.00
24666;BME280;29726;53.532;-1.478;2023-05-12T05:48:59;101471.50;;;16.99;100.00
24666;BME280;29726;53.532;-1.478;2023-05-12T05:51:43;101478.22;;;17.01;100.00
24666;BME280;29726;53.532;-1.478;2023-05-12T05:54:27;101467.81;;;16.93;100.00
24666;BME280;29726;53.532;-1.478;2023-05-12T05:57:11;101465.31;;;16.95;100.00
24666;BME280;29726;53.532;-1.478;2023-05-12T05:59:55;101474.25;;;16.93;100.00
24666;BME280;29726;53.532;-1.478;2023-05-12T06:02:42;101481.25;;;16.98;100.00
24666;BME280;29726;53.532;-1.478;2023-05-12T06:05:26;101459.97;;;16.82;100.00
24666;BME280;29726;53.532;-1.478;2023-05-12T06:08:10;101451.88;;;16.75;100.00
24666;BME280;29726;53.532;-1.478;2023-05-12T06:10:56;101481.63;;;16.91;100.00
24666;BME280;29726;53.532;-1.478;2023-05-12T06:13:40;101493.00;;;16.96;100.00
24666;BME280;29726;53.532;-1.478;2023-05-12T06:16:24;101472.88;;;16.89;100.00
24666;BME280;29726;53.532;-1.478;2023-05-12T06:19:08;101486.59;;;16.96;100.00
24666;BME280;29726;53.532;-1.478;2023-05-12T06:21:52;101497.38;;;16.97;100.00
24666;BME280;29726;53.532;-1.478;2023-05-12T06:24:36;101496.53;;;16.91;100.00
24666;BME280;29726;53.532;-1.478;2023-05-12T06:27:20;101493.81;;;16.97;100.00
24666;BME280;29726;53.532;-1.478;2023-05-12T06:30:05;101483.41;;;16.88;100.00
24666;BME280;29726;53.532;-1.478;2023-05-12T06:32:49;101501.97;;;16.95;100.00
24666;BME280;29726;53.532;-1.478;2023-05-12T06:35:33;101501.19;;;16.94;100.00
24666;BME280;29726;53.532;-1.478;2023-05-12T06:38:17;101501.97;;;16.95;100.00
24666;BME280;29726;53.532;-1.478;2023-05-12T06:41:01;101516.38;;;16.97;100.00
24666;BME280;29726;53.532;-1.478;2023-05-12T06:43:45;101515.28;;;16.94;100.00
24666;BME280;29726;53.532;-1.478;2023-05-12T06:46:28;101504.97;;;16.91;100.00
24666;BME280;29726;53.532;-1.478;2023-05-12T06:49:12;101515.56;;;16.96;100.00
24666;BME280;29726;53.532;-1.478;2023-05-12T06:51:56;101514.41;;;16.88;100.00
24666;BME280;29726;53.532;-1.478;2023-05-12T06:54:40;101523.56;;;16.98;100.00
24666;BME280;29726;53.532;-1.478;2023-05-12T06:57:25;101516.38;;;16.97;100.00
24666;BME280;29726;53.532;-1.478;2023-05-12T07:00:09;101515.56;;;16.96;100.00
24666;BME280;29726;53.532;-1.478;2023-05-12T07:02:53;101481.63;;;16.76;100.00
24666;BME280;29726;53.532;-1.478;2023-05-12T07:05:37;101518.22;;;17.00;100.00
24666;BME280;29726;53.532;-1.478;2023-05-12T07:08:21;101516.16;;;17.00;100.00
24666;BME280;29726;53.532;-1.478;2023-05-12T07:11:05;101513.03;;;16.98;100.00
24666;BME280;29726;53.532;-1.478;2023-05-12T07:13:49;101516.44;;;17.02;100.00
24666;BME280;29726;53.532;-1.478;2023-05-12T07:16:33;101480.88;;;16.76;100.00
24666;BME280;29726;53.532;-1.478;2023-05-12T07:19:17;101518.50;;;17.02;100.00
24666;BME280;29726;53.532;-1.478;2023-05-12T07:22:01;101527.25;;;17.04;100.00
24666;BME280;29726;53.532;-1.478;2023-05-12T07:24:46;101524.63;;;17.00;100.00
24666;BME280;29726;53.532;-1.478;2023-05-12T07:27:30;101522.59;;;17.01;100.00
24666;BME280;29726;53.532;-1.478;2023-05-12T07:30:14;101512.75;;;16.96;100.00
24666;BME280;29726;53.532;-1.478;2023-05-12T07:32:59;101515.56;;;16.96;100.00
24666;BME280;29726;53.532;-1.478;2023-05-12T07:35:44;101524.91;;;17.02;100.00
24666;BME280;29726;53.532;-1.478;2023-05-12T07:38:29;101530.38;;;17.06;100.00
24666;BME280;29726;53.532;-1.478;2023-05-12T07:41:13;101521.59;;;17.04;100.00
24666;BME280;29726;53.532;-1.478;2023-05-12T07:43:58;101524.91;;;17.02;100.00
24666;BME280;29726;53.532;-1.478;2023-05-12T07:46:42;101544.75;;;17.08;100.00
24666;BME280;29726;53.532;-1.478;2023-05-12T07:49:26;101526.47;;;17.03;100.00
24666;BME280;29726;53.532;-1.478;2023-05-12T07:52:10;101520.63;;;17.07;100.00
24666;BME280;29726;53.532;-1.478;2023-05-12T07:54:57;101535.81;;;17.09;100.00
24666;BME280;29726;53.532;-1.478;2023-05-12T07:57:41;101532.22;;;17.09;100.00
24666;BME280;29726;53.532;-1.478;2023-05-12T08:00:25;101528.63;;;17.08;100.00
24666;BME280;29726;53.532;-1.478;2023-05-12T08:03:09;101540.47;;;17.12;100.00
24666;BME280;29726;53.532;-1.478;2023-05-12T08:05:53;101534.84;;;17.12;100.00
24666;BME280;29726;53.532;-1.478;2023-05-12T08:08:37;101541.53;;;17.15;100.00
24666;BME280;29726;53.532;-1.478;2023-05-12T08:11:21;101513.16;;;17.04;100.00
24666;BME280;29726;53.532;-1.478;2023-05-12T08:14:05;101535.72;;;17.04;100.00
24666;BME280;29726;53.532;-1.478;2023-05-12T08:16:50;101516.75;;;16.90;100.00
24666;BME280;29726;53.532;-1.478;2023-05-12T08:19:34;101547.69;;;17.13;100.00
24666;BME280;29726;53.532;-1.478;2023-05-12T08:22:18;101556.72;;;17.17;100.00
24666;BME280;29726;53.532;-1.478;2023-05-12T08:25:02;101565.47;;;17.19;100.00
24666;BME280;29726;53.532;-1.478;2023-05-12T08:27:46;101552.81;;;17.15;100.00
24666;BME280;29726;53.532;-1.478;2023-05-12T08:30:29;101556.72;;;17.17;100.00
24666;BME280;29726;53.532;-1.478;2023-05-12T08:33:13;101569.47;;;17.27;100.00
24666;BME280;29726;53.532;-1.478;2023-05-12T08:35:57;101578.72;;;17.28;100.00
24666;BME280;29726;53.532;-1.478;2023-05-12T08:38:41;101575.41;;;17.29;100.00
24666;BME280;29726;53.532;-1.478;2023-05-12T08:44:46;101583.66;;;17.33;100.00
24666;BME280;29726;53.532;-1.478;2023-05-12T08:47:32;101575.41;;;17.29;100.00
24666;BME280;29726;53.532;-1.478;2023-05-12T08:50:17;101584.28;;;17.37;100.00
24666;BME280;29726;53.532;-1.478;2023-05-12T08:53:06;101581.16;;;17.35;100.00
24666;BME280;29726;53.532;-1.478;2023-05-12T08:55:55;101586.63;;;17.38;100.00
24666;BME280;29726;53.532;-1.478;2023-05-12T08:58:39;101587.38;;;17.39;100.00
24666;BME280;29726;53.532;-1.478;2023-05-12T09:01:25;101563.25;;;17.23;100.00
24666;BME280;29726;53.532;-1.478;2023-05-12T09:04:10;101601.91;;;17.46;100.00
24666;BME280;29726;53.532;-1.478;2023-05-12T09:06:54;101606.38;;;17.53;100.00
24666;BME280;29726;53.532;-1.478;2023-05-12T09:09:41;101603.53;;;17.53;100.00
24666;BME280;29726;53.532;-1.478;2023-05-12T09:12:30;101614.66;;;17.56;100.00
24666;BME280;29726;53.532;-1.478;2023-05-12T09:15:24;101611.31;;;17.58;100.00
24666;BME280;29726;53.532;-1.478;2023-05-12T09:18:09;101603.06;;;17.54;100.00
24666;BME280;29726;53.532;-1.478;2023-05-12T09:20:53;101612.69;;;17.62;100.00
24666;BME280;29726;53.532;-1.478;2023-05-12T09:23:36;101606.25;;;17.62;100.00
24666;BME280;29726;53.532;-1.478;2023-05-12T09:26:21;101617.16;;;17.69;100.00
24666;BME280;29726;53.532;-1.478;2023-05-12T09:29:06;101618.22;;;17.71;100.00
24666;BME280;29726;53.532;-1.478;2023-05-12T09:31:52;101618.44;;;17.68;100.00
24666;BME280;29726;53.532;-1.478;2023-05-12T09:34:36;101631.34;;;17.74;100.00
24666;BME280;29726;53.532;-1.478;2023-05-12T09:37:29;101620.56;;;17.73;100.00
24666;BME280;29726;53.532;-1.478;2023-05-12T09:40:14;101613.34;;;17.72;100.00
24666;BME280;29726;53.532;-1.478;2023-05-12T09:42:59;101615.50;;;17.77;100.00
24666;BME280;29726;53.532;-1.478;2023-05-12T09:45:45;101585.44;;;17.59;100.00
24666;BME280;29726;53.532;-1.478;2023-05-12T09:48:30;101617.13;;;17.83;100.00
24666;BME280;29726;53.532;-1.478;2023-05-12T09:51:16;101616.34;;;17.83;100.00
24666;BME280;29726;53.532;-1.478;2023-05-12T09:54:01;101616.84;;;17.81;100.00
24666;BME280;29726;53.532;-1.478;2023-05-12T09:56:45;101621.00;;;17.86;100.00
24666;BME280;29726;53.532;-1.478;2023-05-12T09:59:31;101615.59;;;17.82;100.00
24666;BME280;29726;53.532;-1.478;2023-05-12T10:02:15;101624.16;;;17.88;100.00
24666;BME280;29726;53.532;-1.478;2023-05-12T10:05:04;101627.16;;;17.84;100.00
24666;BME280;29726;53.532;-1.478;2023-05-12T10:07:52;101629.56;;;17.91;100.00
24666;BME280;29726;53.532;-1.478;2023-05-12T10:10:41;101626.47;;;17.89;100.00
24666;BME280;29726;53.532;-1.478;2023-05-12T10:13:25;101620.81;;;17.89;100.00
24666;BME280;29726;53.532;-1.478;2023-05-12T10:16:10;101613.31;;;17.86;100.00
24666;BME280;29726;53.532;-1.478;2023-05-12T10:18:55;101604.28;;;17.82;100.00
24666;BME280;29726;53.532;-1.478;2023-05-12T10:21:42;101629.38;;;17.95;100.00
24666;BME280;29726;53.532;-1.478;2023-05-12T10:24:26;101619.63;;;17.96;100.00
24666;BME280;29726;53.532;-1.478;2023-05-12T10:27:11;101609.72;;;17.86;100.00
24666;BME280;29726;53.532;-1.478;2023-05-12T10:29:56;101626.84;;;17.97;100.00
24666;BME280;29726;53.532;-1.478;2023-05-12T10:32:41;101618.00;;;17.89;100.00
24666;BME280;29726;53.532;-1.478;2023-05-12T10:35:33;101642.81;;;18.00;100.00
24666;BME280;29726;53.532;-1.478;2023-05-12T10:38:18;101636.41;;;17.99;100.00
24666;BME280;29726;53.532;-1.478;2023-05-12T10:41:05;101635.13;;;18.00;100.00
24666;BME280;29726;53.532;-1.478;2023-05-12T10:43:49;101633.56;;;17.99;100.00
24666;BME280;29726;53.532;-1.478;2023-05-12T10:46:33;101625.56;;;17.98;100.00
24666;BME280;29726;53.532;-1.478;2023-05-12T10:49:17;101638.44;;;17.99;100.00
24666;BME280;29726;53.532;-1.478;2023-05-12T10:52:02;101602.44;;;17.79;100.00
24666;BME280;29726;53.532;-1.478;2023-05-12T10:54:46;101643.88;;;18.02;100.00
24666;BME280;29726;53.532;-1.478;2023-05-12T10:57:31;101646.22;;;18.04;100.00
24666;BME280;29726;53.532;-1.478;2023-05-12T11:00:15;101641.81;;;18.03;100.00
24666;BME280;29726;53.532;-1.478;2023-05-12T11:03:01;101641.53;;;18.01;100.00
24666;BME280;29726;53.532;-1.478;2023-05-12T11:05:45;101637.94;;;18.00;100.00
24666;BME280;29726;53.532;-1.478;2023-05-12T11:08:30;101648.84;;;18.07;100.00
24666;BME280;29726;53.532;-1.478;2023-05-12T11:11:17;101640.00;;;18.00;100.00
24666;BME280;29726;53.532;-1.478;2023-05-12T11:14:01;101660.16;;;18.07;100.00
24666;BME280;29726;53.532;-1.478;2023-05-12T11:16:46;101637.63;;;17.98;100.00
24666;BME280;29726;53.532;-1.478;2023-05-12T11:19:31;101649.31;;;18.06;100.00
24666;BME280;29726;53.532;-1.478;2023-05-12T11:22:18;101652.44;;;18.08;100.00
24666;BME280;29726;53.532;-1.478;2023-05-12T11:25:10;101647.56;;;18.08;100.00
24666;BME280;29726;53.532;-1.478;2023-05-12T11:27:55;101654.78;;;18.09;100.00
24666;BME280;29726;53.532;-1.478;2023-05-12T11:30:48;101654.78;;;18.09;100.00
24666;BME280;29726;53.532;-1.478;2023-05-12T11:33:32;101660.44;;;18.09;100.00
24666;BME280;29726;53.532;-1.478;2023-05-12T11:36:16;101652.16;;;18.06;100.00
24666;BME280;29726;53.532;-1.478;2023-05-12T11:39:11;101645.44;;;18.03;100.00
24666;BME280;29726;53.532;-1.478;2023-05-12T11:42:01;101668.91;;;18.09;100.00
24666;BME280;29726;53.532;-1.478;2023-05-12T11:44:46;101661.69;;;18.08;100.00
24666;BME280;29726;53.532;-1.478;2023-05-12T11:47:31;101673.00;;;18.08;100.00
24666;BME280;29726;53.532;-1.478;2023-05-12T11:50:22;101681.28;;;18.12;100.00
24666;BME280;29726;53.532;-1.478;2023-05-12T11:53:11;101685.69;;;18.13;100.00
24666;BME280;29726;53.532;-1.478;2023-05-12T11:55:57;101676.91;;;18.11;100.00
24666;BME280;29726;53.532;-1.478;2023-05-12T12:01:44;101678.16;;;18.10;100.00
24666;BME280;29726;53.532;-1.478;2023-05-12T12:04:39;101667.78;;;18.01;100.00
24666;BME280;29726;53.532;-1.478;2023-05-12T12:07:35;101678.94;;;18.10;100.00
24666;BME280;29726;53.532;-1.478;2023-05-12T12:10:19;101666.00;;;18.04;100.00
24666;BME280;29726;53.532;-1.478;2023-05-12T12:13:03;101677.38;;;18.09;100.00
24666;BME280;29726;53.532;-1.478;2023-05-12T12:15:47;101681.56;;;18.14;100.00
24666;BME280;29726;53.532;-1.478;2023-05-12T12:18:32;101680.50;;;18.11;100.00
24666;BME280;29726;53.532;-1.478;2023-05-12T12:21:16;101688.50;;;18.13;100.00
24666;BME280;29726;53.532;-1.478;2023-05-12T12:24:00;101682.56;;;18.11;100.00
24666;BME280;29726;53.532;-1.478;2023-05-12T12:26:44;101688.78;;;18.15;100.00
24666;BME280;29726;53.532;-1.478;2023-05-12T12:29:28;101702.41;;;18.16;100.00
24666;BME280;29726;53.532;-1.478;2023-05-12T12:32:12;101692.78;;;18.08;100.00
24666;BME280;29726;53.532;-1.478;2023-05-12T12:34:56;101702.91;;;18.15;100.00
24666;BME280;29726;53.532;-1.478;2023-05-12T12:37:46;101698.31;;;18.17;100.00
24666;BME280;29726;53.532;-1.478;2023-05-12T12:40:34;101711.97;;;18.19;100.00
24666;BME280;29726;53.532;-1.478;2023-05-12T12:43:18;101704.75;;;18.18;100.00
24666;BME280;29726;53.532;-1.478;2023-05-12T12:46:02;101707.59;;;18.18;100.00
24666;BME280;29726;53.532;-1.478;2023-05-12T12:48:46;101709.63;;;18.17;100.00
24666;BME280;29726;53.532;-1.478;2023-05-12T12:51:31;101703.91;;;18.12;100.00
24666;BME280;29726;53.532;-1.478;2023-05-12T12:54:15;101713.94;;;18.13;100.00
24666;BME280;29726;53.532;-1.478;2023-05-12T12:56:59;101715.56;;;18.19;100.00
24666;BME280;29726;53.532;-1.478;2023-05-12T12:59:43;101718.91;;;18.18;100.00
24666;BME280;29726;53.532;-1.478;2023-05-12T13:02:27;101720.16;;;18.17;100.00
24666;BME280;29726;53.532;-1.478;2023-05-12T13:05:11;101720.94;;;18.17;100.00
24666;BME280;29726;53.532;-1.478;2023-05-12T13:07:55;101724.03;;;18.19;100.00
24666;BME280;29726;53.532;-1.478;2023-05-12T13:10:39;101694.94;;;17.99;100.00
24666;BME280;29726;53.532;-1.478;2023-05-12T13:13:24;101725.81;;;18.17;100.00
24666;BME280;29726;53.532;-1.478;2023-05-12T13:16:08;101728.84;;;18.13;100.00
24666;BME280;29726;53.532;-1.478;2023-05-12T13:18:53;101730.41;;;18.14;100.00
24666;BME280;29726;53.532;-1.478;2023-05-12T13:21:36;101735.06;;;18.17;100.00
24666;BME280;29726;53.532;-1.478;2023-05-12T13:24:20;101746.66;;;18.19;100.00
24666;BME280;29726;53.532;-1.478;2023-05-12T13:27:04;101738.69;;;18.18;100.00
24666;BME280;29726;53.532;-1.478;2023-05-12T13:29:51;101729.34;;;18.12;100.00
24666;BME280;29726;53.532;-1.478;2023-05-12T13:32:36;101733.03;;;18.18;100.00
24666;BME280;29726;53.532;-1.478;2023-05-12T13:35:20;101726.81;;;18.14;100.00
24666;BME280;29726;53.532;-1.478;2023-05-12T13:38:04;101727.00;;;18.10;100.00
24666;BME280;29726;53.532;-1.478;2023-05-12T13:40:48;101734.78;;;18.15;100.00
24666;BME280;29726;53.532;-1.478;2023-05-12T13:43:32;101743.53;;;18.17;100.00
24666;BME280;29726;53.532;-1.478;2023-05-12T13:46:15;101729.91;;;18.16;100.00
24666;BME280;29726;53.532;-1.478;2023-05-12T13:48:59;101726.59;;;18.17;100.00
24666;BME280;29726;53.532;-1.478;2023-05-12T13:51:44;101733.22;;;18.14;100.00
24666;BME280;29726;53.532;-1.478;2023-05-12T13:54:30;101730.09;;;18.12;100.00
24666;BME280;29726;53.532;-1.478;2023-05-12T13:57:14;101719.31;;;18.11;100.00
24666;BME280;29726;53.532;-1.478;2023-05-12T13:59:58;101744.34;;;18.18;100.00
24666;BME280;29726;53.532;-1.478;2023-05-12T14:02:42;101737.03;;;18.11;100.00
24666;BME280;29726;53.532;-1.478;2023-05-12T14:05:26;101733.50;;;18.16;100.00